Elkins-Randolph Co-Jennings Randolph Field Elkins US
ICAO: KEKN
IATA: EKN
Category: Medium
Scheduled Services: No

Elevation: 1987 ft
TransAlt. 18000 ft.

Airport Communications:
CLARKSBURG APP/DEP:121.15
ASOS:119.275
CTAF:123.6
RDO:122.2

KEKN Zoom In..

If you have problems with the map follow the link
https://www.worldairports.se/pages/airport.php?
ICAO=KEKN

Runways:

(A) RW 05 length 4501 ft width 140 ft
---- / hdg 46

(B) RW 14 length 4544 ft width 140 ft
---- / hdg 136

(C) RW 23 length 4501 ft width 140 ft
---- / hdg 226

(D) RW 32 length 4544 ft width 140 ft
---- / hdg 316

Location; KEKN
Day. 14 / Time. 10.51 Zulu
* Altimeter: 30.40
* Temperature: -03° c. -26.6°f.
* Wind from: 310° Speed 03 kn.
Dewpoint: -06° c.
Visibility: 10 Statute Miles.
Clouds: Scattered 2200 ft.

KEKN 141051Z AUTO 31003KT 10SM SCT022 M03/M06 A3040 RMK AO2 SLP320 T10281061 TSNO $


Wind From 310°
Speed 03 kn.

 
 
jpsmedia.com for Web Design worldairports.se 2018   terms of use